sensor_id;sensor_type;location;lat;lon;timestamp;temperature;humidity
3134;DHT22;1577;49.912;10.924;2023-06-10T00:01:52;16.30;98.60
3134;DHT22;1577;49.912;10.924;2023-06-10T00:04:20;16.30;99.30
3134;DHT22;1577;49.912;10.924;2023-06-10T00:06:46;16.20;99.60
3134;DHT22;1577;49.912;10.924;2023-06-10T00:09:15;16.20;99.90
3134;DHT22;1577;49.912;10.924;2023-06-10T00:11:41;16.10;99.90
3134;DHT22;1577;49.912;10.924;2023-06-10T00:14:07;16.20;99.90
3134;DHT22;1577;49.912;10.924;2023-06-10T00:16:33;16.10;99.90
3134;DHT22;1577;49.912;10.924;2023-06-10T00:19:00;16.20;99.90
3134;DHT22;1577;49.912;10.924;2023-06-10T00:21:30;16.10;99.90
3134;DHT22;1577;49.912;10.924;2023-06-10T00:23:56;16.10;99.90
3134;DHT22;1577;49.912;10.924;2023-06-10T00:26:24;16.10;99.90
3134;DHT22;1577;49.912;10.924;2023-06-10T00:28:51;16.10;99.90
3134;DHT22;1577;49.912;10.924;2023-06-10T00:31:17;16.00;99.90
3134;DHT22;1577;49.912;10.924;2023-06-10T00:33:43;16.00;99.90
3134;DHT22;1577;49.912;10.924;2023-06-10T00:36:08;15.90;99.90
3134;DHT22;1577;49.912;10.924;2023-06-10T00:38:34;15.80;99.90
3134;DHT22;1577;49.912;10.924;2023-06-10T00:41:00;15.80;99.90
3134;DHT22;1577;49.912;10.924;2023-06-10T00:43:28;15.70;99.90
3134;DHT22;1577;49.912;10.924;2023-06-10T00:45:54;15.60;99.90
3134;DHT22;1577;49.912;10.924;2023-06-10T00:48:20;15.60;99.90
3134;DHT22;1577;49.912;10.924;2023-06-10T00:50:46;15.60;99.90
3134;DHT22;1577;49.912;10.924;2023-06-10T00:53:12;15.60;99.90
3134;DHT22;1577;49.912;10.924;2023-06-10T00:55:38;15.60;99.90
3134;DHT22;1577;49.912;10.924;2023-06-10T00:58:04;15.50;99.90
3134;DHT22;1577;49.912;10.924;2023-06-10T01:00:30;15.40;99.90
3134;DHT22;1577;49.912;10.924;2023-06-10T01:02:55;15.40;99.90
3134;DHT22;1577;49.912;10.924;2023-06-10T01:05:23;15.40;99.90
3134;DHT22;1577;49.912;10.924;2023-06-10T01:08:01;15.40;99.90
3134;DHT22;1577;49.912;10.924;2023-06-10T01:10:43;15.40;99.90
3134;DHT22;1577;49.912;10.924;2023-06-10T01:13:12;15.50;99.90
3134;DHT22;1577;49.912;10.924;2023-06-10T01:15:39;15.50;99.90
3134;DHT22;1577;49.912;10.924;2023-06-10T01:18:09;15.50;99.90
3134;DHT22;1577;49.912;10.924;2023-06-10T01:20:36;15.40;99.90
3134;DHT22;1577;49.912;10.924;2023-06-10T01:23:05;15.40;99.90
3134;DHT22;1577;49.912;10.924;2023-06-10T01:25:31;15.30;99.90
3134;DHT22;1577;49.912;10.924;2023-06-10T01:28:39;15.30;99.90
3134;DHT22;1577;49.912;10.924;2023-06-10T01:31:07;15.30;99.90
3134;DHT22;1577;49.912;10.924;2023-06-10T01:33:37;15.20;99.90
3134;DHT22;1577;49.912;10.924;2023-06-10T01:36:04;15.10;99.90
3134;DHT22;1577;49.912;10.924;2023-06-10T01:38:33;15.00;99.90
3134;DHT22;1577;49.912;10.924;2023-06-10T01:41:03;15.00;99.90
3134;DHT22;1577;49.912;10.924;2023-06-10T01:43:31;15.00;99.90
3134;DHT22;1577;49.912;10.924;2023-06-10T01:45:57;14.90;99.90
3134;DHT22;1577;49.912;10.924;2023-06-10T01:48:23;14.90;99.90
3134;DHT22;1577;49.912;10.924;2023-06-10T01:50:48;15.00;99.90
3134;DHT22;1577;49.912;10.924;2023-06-10T01:53:14;15.00;99.90
3134;DHT22;1577;49.912;10.924;2023-06-10T01:55:40;14.90;99.90
3134;DHT22;1577;49.912;10.924;2023-06-10T01:58:05;14.90;99.90
3134;DHT22;1577;49.912;10.924;2023-06-10T02:00:31;14.90;99.90
3134;DHT22;1577;49.912;10.924;2023-06-10T02:02:57;14.90;99.90
3134;DHT22;1577;49.912;10.924;2023-06-10T02:05:22;14.80;99.90
3134;DHT22;1577;49.912;10.924;2023-06-10T02:07:48;14.70;99.90
3134;DHT22;1577;49.912;10.924;2023-06-10T02:10:14;14.60;99.90
3134;DHT22;1577;49.912;10.924;2023-06-10T02:12:39;14.60;99.90
3134;DHT22;1577;49.912;10.924;2023-06-10T02:15:05;14.70;99.90
3134;DHT22;1577;49.912;10.924;2023-06-10T02:17:31;14.70;99.90
3134;DHT22;1577;49.912;10.924;2023-06-10T02:19:57;14.70;99.90
3134;DHT22;1577;49.912;10.924;2023-06-10T02:22:25;14.60;99.90
3134;DHT22;1577;49.912;10.924;2023-06-10T02:24:50;14.60;99.90
3134;DHT22;1577;49.912;10.924;2023-06-10T02:27:17;14.60;99.90
3134;DHT22;1577;49.912;10.924;2023-06-10T02:29:43;14.60;99.90
3134;DHT22;1577;49.912;10.924;2023-06-10T02:32:09;14.50;99.90
3134;DHT22;1577;49.912;10.924;2023-06-10T02:34:35;14.50;99.90
3134;DHT22;1577;49.912;10.924;2023-06-10T02:37:02;14.40;99.90
3134;DHT22;1577;49.912;10.924;2023-06-10T02:39:28;14.50;99.90
3134;DHT22;1577;49.912;10.924;2023-06-10T02:41:54;14.50;99.90
3134;DHT22;1577;49.912;10.924;2023-06-10T02:44:20;14.30;99.90
3134;DHT22;1577;49.912;10.924;2023-06-10T02:46:46;14.30;99.90
3134;DHT22;1577;49.912;10.924;2023-06-10T02:49:12;14.30;99.90
3134;DHT22;1577;49.912;10.924;2023-06-10T02:51:38;14.30;99.90
3134;DHT22;1577;49.912;10.924;2023-06-10T02:54:04;14.30;99.90
3134;DHT22;1577;49.912;10.924;2023-06-10T02:56:30;14.20;99.90
3134;DHT22;1577;49.912;10.924;2023-06-10T02:58:55;14.10;99.90
3134;DHT22;1577;49.912;10.924;2023-06-10T03:01:21;14.10;99.90
3134;DHT22;1577;49.912;10.924;2023-06-10T03:03:47;14.10;99.90
3134;DHT22;1577;49.912;10.924;2023-06-10T03:06:13;14.10;99.90
3134;DHT22;1577;49.912;10.924;2023-06-10T03:08:40;14.10;99.90
3134;DHT22;1577;49.912;10.924;2023-06-10T03:11:05;14.10;99.90
3134;DHT22;1577;49.912;10.924;2023-06-10T03:13:32;14.20;99.90
3134;DHT22;1577;49.912;10.924;2023-06-10T03:15:58;14.20;99.90
3134;DHT22;1577;49.912;10.924;2023-06-10T03:18:27;14.20;99.90
3134;DHT22;1577;49.912;10.924;2023-06-10T03:20:56;14.10;99.90
3134;DHT22;1577;49.912;10.924;2023-06-10T03:23:22;14.10;99.90
3134;DHT22;1577;49.912;10.924;2023-06-10T03:25:48;14.10;99.90
3134;DHT22;1577;49.912;10.924;2023-06-10T03:28:14;14.10;99.90
3134;DHT22;1577;49.912;10.924;2023-06-10T03:30:40;14.20;99.90
3134;DHT22;1577;49.912;10.924;2023-06-10T03:33:06;14.10;99.90
3134;DHT22;1577;49.912;10.924;2023-06-10T03:35:31;14.10;99.90
3134;DHT22;1577;49.912;10.924;2023-06-10T03:37:58;14.00;99.90
3134;DHT22;1577;49.912;10.924;2023-06-10T03:40:24;13.90;99.90
3134;DHT22;1577;49.912;10.924;2023-06-10T03:42:50;13.90;99.90
3134;DHT22;1577;49.912;10.924;2023-06-10T03:45:15;14.00;99.90
3134;DHT22;1577;49.912;10.924;2023-06-10T03:47:41;14.10;99.90
3134;DHT22;1577;49.912;10.924;2023-06-10T03:50:08;14.20;99.90
3134;DHT22;1577;49.912;10.924;2023-06-10T03:52:35;14.30;99.90
3134;DHT22;1577;49.912;10.924;2023-06-10T03:55:01;14.30;99.90
3134;DHT22;1577;49.912;10.924;2023-06-10T03:57:26;14.30;99.90
3134;DHT22;1577;49.912;10.924;2023-06-10T03:59:52;14.40;99.90
3134;DHT22;1577;49.912;10.924;2023-06-10T04:04:43;14.60;99.90
3134;DHT22;1577;49.912;10.924;2023-06-10T04:07:10;14.70;99.90
3134;DHT22;1577;49.912;10.924;2023-06-10T04:09:36;14.80;99.90
3134;DHT22;1577;49.912;10.924;2023-06-10T04:12:02;14.90;99.90
3134;DHT22;1577;49.912;10.924;2023-06-10T04:14:31;14.90;99.90
3134;DHT22;1577;49.912;10.924;2023-06-10T04:16:57;14.90;99.90
3134;DHT22;1577;49.912;10.924;2023-06-10T04:19:22;14.90;99.90
3134;DHT22;1577;49.912;10.924;2023-06-10T04:21:48;14.90;99.90
3134;DHT22;1577;49.912;10.924;2023-06-10T04:24:13;15.00;99.90
3134;DHT22;1577;49.912;10.924;2023-06-10T04:26:39;15.00;99.90
3134;DHT22;1577;49.912;10.924;2023-06-10T04:29:04;15.10;99.90
3134;DHT22;1577;49.912;10.924;2023-06-10T04:31:30;15.30;99.90
3134;DHT22;1577;49.912;10.924;2023-06-10T04:33:57;15.40;99.90
3134;DHT22;1577;49.912;10.924;2023-06-10T04:36:22;15.40;99.90
3134;DHT22;1577;49.912;10.924;2023-06-10T04:38:49;15.50;99.90
3134;DHT22;1577;49.912;10.924;2023-06-10T04:41:14;15.50;99.90
3134;DHT22;1577;49.912;10.924;2023-06-10T04:43:40;15.50;99.90
3134;DHT22;1577;49.912;10.924;2023-06-10T04:46:05;15.60;99.90
3134;DHT22;1577;49.912;10.924;2023-06-10T04:48:31;15.60;99.90
3134;DHT22;1577;49.912;10.924;2023-06-10T04:50:58;15.70;99.90
3134;DHT22;1577;49.912;10.924;2023-06-10T04:53:24;15.70;99.90
3134;DHT22;1577;49.912;10.924;2023-06-10T04:55:49;15.80;99.90
3134;DHT22;1577;49.912;10.924;2023-06-10T04:58:15;15.90;99.90
3134;DHT22;1577;49.912;10.924;2023-06-10T05:00:41;15.90;99.90
3134;DHT22;1577;49.912;10.924;2023-06-10T05:03:07;15.90;99.90
3134;DHT22;1577;49.912;10.924;2023-06-10T05:05:32;15.90;99.90
3134;DHT22;1577;49.912;10.924;2023-06-10T05:07:58;16.00;99.90
3134;DHT22;1577;49.912;10.924;2023-06-10T05:10:23;16.00;99.90
3134;DHT22;1577;49.912;10.924;2023-06-10T05:12:49;16.20;99.90
3134;DHT22;1577;49.912;10.924;2023-06-10T05:15:14;16.20;99.90
3134;DHT22;1577;49.912;10.924;2023-06-10T05:17:40;16.20;99.90
3134;DHT22;1577;49.912;10.924;2023-06-10T05:20:06;16.10;99.90
3134;DHT22;1577;49.912;10.924;2023-06-10T05:22:32;16.10;99.90
3134;DHT22;1577;49.912;10.924;2023-06-10T05:24:58;16.10;99.90
3134;DHT22;1577;49.912;10.924;2023-06-10T05:27:23;16.20;99.90
3134;DHT22;1577;49.912;10.924;2023-06-10T05:29:50;16.20;99.90
3134;DHT22;1577;49.912;10.924;2023-06-10T05:32:17;16.30;99.90
3134;DHT22;1577;49.912;10.924;2023-06-10T05:34:43;16.60;99.90
3134;DHT22;1577;49.912;10.924;2023-06-10T05:37:08;16.70;99.90
3134;DHT22;1577;49.912;10.924;2023-06-10T05:39:36;16.90;99.90
3134;DHT22;1577;49.912;10.924;2023-06-10T05:42:06;17.00;99.90
3134;DHT22;1577;49.912;10.924;2023-06-10T05:44:32;17.10;99.90
3134;DHT22;1577;49.912;10.924;2023-06-10T05:46:58;17.20;99.90
3134;DHT22;1577;49.912;10.924;2023-06-10T05:49:23;17.30;99.90
3134;DHT22;1577;49.912;10.924;2023-06-10T05:51:49;17.40;99.90
3134;DHT22;1577;49.912;10.924;2023-06-10T05:54:15;17.50;99.90
3134;DHT22;1577;49.912;10.924;2023-06-10T05:56:40;17.80;99.90
3134;DHT22;1577;49.912;10.924;2023-06-10T05:59:06;17.90;99.90
3134;DHT22;1577;49.912;10.924;2023-06-10T06:01:32;18.10;99.90
3134;DHT22;1577;49.912;10.924;2023-06-10T06:03:58;18.30;99.90
3134;DHT22;1577;49.912;10.924;2023-06-10T06:06:23;18.40;99.90
3134;DHT22;1577;49.912;10.924;2023-06-10T06:08:49;18.50;99.90
3134;DHT22;1577;49.912;10.924;2023-06-10T06:11:15;18.60;99.90
3134;DHT22;1577;49.912;10.924;2023-06-10T06:13:40;18.60;99.90
3134;DHT22;1577;49.912;10.924;2023-06-10T06:16:07;18.70;99.90
3134;DHT22;1577;49.912;10.924;2023-06-10T06:18:33;18.70;99.90
3134;DHT22;1577;49.912;10.924;2023-06-10T06:20:59;18.90;99.90
3134;DHT22;1577;49.912;10.924;2023-06-10T06:23:25;19.00;99.90
3134;DHT22;1577;49.912;10.924;2023-06-10T06:25:51;19.10;99.90
3134;DHT22;1577;49.912;10.924;2023-06-10T06:28:17;19.20;99.90
3134;DHT22;1577;49.912;10.924;2023-06-10T06:30:44;19.40;99.90
3134;DHT22;1577;49.912;10.924;2023-06-10T06:33:10;19.50;99.90
3134;DHT22;1577;49.912;10.924;2023-06-10T06:35:35;19.80;99.90
3134;DHT22;1577;49.912;10.924;2023-06-10T06:38:01;20.50;99.90
3134;DHT22;1577;49.912;10.924;2023-06-10T06:40:27;21.70;99.90
3134;DHT22;1577;49.912;10.924;2023-06-10T06:42:52;23.20;99.90
3134;DHT22;1577;49.912;10.924;2023-06-10T06:45:18;24.60;99.90
3134;DHT22;1577;49.912;10.924;2023-06-10T06:47:43;25.80;97.00
3134;DHT22;1577;49.912;10.924;2023-06-10T06:50:09;26.70;95.50
3134;DHT22;1577;49.912;10.924;2023-06-10T06:52:35;27.30;93.50
3134;DHT22;1577;49.912;10.924;2023-06-10T06:55:01;27.70;92.30
3134;DHT22;1577;49.912;10.924;2023-06-10T06:57:26;27.90;91.20
3134;DHT22;1577;49.912;10.924;2023-06-10T06:59:52;28.00;89.90
3134;DHT22;1577;49.912;10.924;2023-06-10T07:02:18;28.40;89.50
3134;DHT22;1577;49.912;10.924;2023-06-10T07:04:44;28.80;86.50
3134;DHT22;1577;49.912;10.924;2023-06-10T07:07:11;29.10;85.90
3134;DHT22;1577;49.912;10.924;2023-06-10T07:09:37;29.60;84.10
3134;DHT22;1577;49.912;10.924;2023-06-10T07:12:03;30.10;81.30
3134;DHT22;1577;49.912;10.924;2023-06-10T07:14:29;30.60;79.50
3134;DHT22;1577;49.912;10.924;2023-06-10T07:16:55;31.40;79.50
3134;DHT22;1577;49.912;10.924;2023-06-10T07:19:21;32.10;75.20
3134;DHT22;1577;49.912;10.924;2023-06-10T07:21:46;32.60;73.40
3134;DHT22;1577;49.912;10.924;2023-06-10T07:24:13;32.90;72.00
3134;DHT22;1577;49.912;10.924;2023-06-10T07:26:38;33.60;71.90
3134;DHT22;1577;49.912;10.924;2023-06-10T07:29:04;33.90;68.20
3134;DHT22;1577;49.912;10.924;2023-06-10T07:31:29;34.00;66.00
3134;DHT22;1577;49.912;10.924;2023-06-10T07:33:55;34.00;65.60
3134;DHT22;1577;49.912;10.924;2023-06-10T07:36:21;34.10;64.80
3134;DHT22;1577;49.912;10.924;2023-06-10T07:38:46;34.20;63.70
3134;DHT22;1577;49.912;10.924;2023-06-10T07:41:12;33.80;62.50
3134;DHT22;1577;49.912;10.924;2023-06-10T07:43:38;33.30;63.80
3134;DHT22;1577;49.912;10.924;2023-06-10T07:46:03;33.30;64.20
3134;DHT22;1577;49.912;10.924;2023-06-10T07:48:31;33.70;63.80
3134;DHT22;1577;49.912;10.924;2023-06-10T07:50:59;34.30;60.30
3134;DHT22;1577;49.912;10.924;2023-06-10T07:53:24;34.50;60.20
3134;DHT22;1577;49.912;10.924;2023-06-10T07:55:50;34.90;59.40
3134;DHT22;1577;49.912;10.924;2023-06-10T07:58:15;35.00;59.60
3134;DHT22;1577;49.912;10.924;2023-06-10T08:00:41;35.50;57.60
3134;DHT22;1577;49.912;10.924;2023-06-10T08:03:07;35.70;57.30
3134;DHT22;1577;49.912;10.924;2023-06-10T08:05:33;36.00;57.40
3134;DHT22;1577;49.912;10.924;2023-06-10T08:07:58;36.10;57.20
3134;DHT22;1577;49.912;10.924;2023-06-10T08:10:24;36.00;55.90
3134;DHT22;1577;49.912;10.924;2023-06-10T08:12:49;35.60;56.10
3134;DHT22;1577;49.912;10.924;2023-06-10T08:15:15;35.20;56.30
3134;DHT22;1577;49.912;10.924;2023-06-10T08:17:41;34.80;56.50
3134;DHT22;1577;49.912;10.924;2023-06-10T08:20:06;34.20;56.60
3134;DHT22;1577;49.912;10.924;2023-06-10T08:22:32;34.00;57.90
3134;DHT22;1577;49.912;10.924;2023-06-10T08:24:59;34.00;57.30
3134;DHT22;1577;49.912;10.924;2023-06-10T08:27:24;34.00;57.20
3134;DHT22;1577;49.912;10.924;2023-06-10T08:29:50;33.90;56.90
3134;DHT22;1577;49.912;10.924;2023-06-10T08:32:16;33.80;57.10
3134;DHT22;1577;49.912;10.924;2023-06-10T08:34:41;33.90;57.40
3134;DHT22;1577;49.912;10.924;2023-06-10T08:37:10;33.80;56.60
3134;DHT22;1577;49.912;10.924;2023-06-10T08:39:35;33.30;57.00
3134;DHT22;1577;49.912;10.924;2023-06-10T08:42:28;33.40;57.50
3134;DHT22;1577;49.912;10.924;2023-06-10T08:45:01;33.60;56.50
3134;DHT22;1577;49.912;10.924;2023-06-10T08:47:31;33.50;56.80
3134;DHT22;1577;49.912;10.924;2023-06-10T08:50:04;33.30;57.10
3134;DHT22;1577;49.912;10.924;2023-06-10T08:52:43;33.20;57.20
3134;DHT22;1577;49.912;10.924;2023-06-10T08:55:32;33.10;57.60
3134;DHT22;1577;49.912;10.924;2023-06-10T08:57:59;32.90;57.60
3134;DHT22;1577;49.912;10.924;2023-06-10T09:00:26;33.10;57.70
3134;DHT22;1577;49.912;10.924;2023-06-10T09:02:51;33.10;57.40
3134;DHT22;1577;49.912;10.924;2023-06-10T09:05:17;33.20;57.70
3134;DHT22;1577;49.912;10.924;2023-06-10T09:07:53;33.10;57.30
3134;DHT22;1577;49.912;10.924;2023-06-10T09:10:19;32.90;57.50
3134;DHT22;1577;49.912;10.924;2023-06-10T09:12:45;32.70;57.60
3134;DHT22;1577;49.912;10.924;2023-06-10T09:15:10;32.70;57.70
3134;DHT22;1577;49.912;10.924;2023-06-10T09:17:38;32.40;57.50
3134;DHT22;1577;49.912;10.924;2023-06-10T09:20:06;32.40;58.30
3134;DHT22;1577;49.912;10.924;2023-06-10T09:22:33;32.50;58.00
3134;DHT22;1577;49.912;10.924;2023-06-10T09:25:12;32.60;58.40
3134;DHT22;1577;49.912;10.924;2023-06-10T09:27:50;32.60;58.70
3134;DHT22;1577;49.912;10.924;2023-06-10T09:30:33;32.80;57.70
3134;DHT22;1577;49.912;10.924;2023-06-10T09:33:10;32.80;57.00
3134;DHT22;1577;49.912;10.924;2023-06-10T09:35:36;32.70;58.20
3134;DHT22;1577;49.912;10.924;2023-06-10T09:38:02;32.80;57.80
3134;DHT22;1577;49.912;10.924;2023-06-10T09:40:30;32.60;57.10
3134;DHT22;1577;49.912;10.924;2023-06-10T09:42:58;32.30;57.70
3134;DHT22;1577;49.912;10.924;2023-06-10T09:45:31;32.10;58.10
3134;DHT22;1577;49.912;10.924;2023-06-10T09:47:57;32.10;58.40
3134;DHT22;1577;49.912;10.924;2023-06-10T09:50:23;31.80;58.60
3134;DHT22;1577;49.912;10.924;2023-06-10T09:52:50;31.50;58.80
3134;DHT22;1577;49.912;10.924;2023-06-10T09:55:17;31.40;59.40
3134;DHT22;1577;49.912;10.924;2023-06-10T09:57:49;31.10;59.20
3134;DHT22;1577;49.912;10.924;2023-06-10T10:00:15;30.90;60.40
3134;DHT22;1577;49.912;10.924;2023-06-10T10:02:51;30.80;60.50
3134;DHT22;1577;49.912;10.924;2023-06-10T10:05:18;30.30;60.00
3134;DHT22;1577;49.912;10.924;2023-06-10T10:07:45;29.80;61.10
3134;DHT22;1577;49.912;10.924;2023-06-10T10:10:12;29.50;62.40
3134;DHT22;1577;49.912;10.924;2023-06-10T10:12:38;29.20;63.10
3134;DHT22;1577;49.912;10.924;2023-06-10T10:15:07;29.00;63.60
3134;DHT22;1577;49.912;10.924;2023-06-10T10:18:02;28.90;63.90
3134;DHT22;1577;49.912;10.924;2023-06-10T10:20:31;28.80;64.10
3134;DHT22;1577;49.912;10.924;2023-06-10T10:22:59;28.80;64.60
3134;DHT22;1577;49.912;10.924;2023-06-10T10:25:31;28.60;65.40
3134;DHT22;1577;49.912;10.924;2023-06-10T10:30:41;28.50;65.80
3134;DHT22;1577;49.912;10.924;2023-06-10T10:33:16;28.50;65.70
3134;DHT22;1577;49.912;10.924;2023-06-10T10:35:43;28.40;65.70
3134;DHT22;1577;49.912;10.924;2023-06-10T10:38:09;28.50;65.60
3134;DHT22;1577;49.912;10.924;2023-06-10T10:40:35;28.60;65.20
3134;DHT22;1577;49.912;10.924;2023-06-10T10:43:02;28.70;65.00
3134;DHT22;1577;49.912;10.924;2023-06-10T10:45:28;28.60;64.20
3134;DHT22;1577;49.912;10.924;2023-06-10T10:47:54;28.60;64.90
3134;DHT22;1577;49.912;10.924;2023-06-10T10:50:22;28.60;64.60
3134;DHT22;1577;49.912;10.924;2023-06-10T10:55:20;28.30;64.50
3134;DHT22;1577;49.912;10.924;2023-06-10T10:57:54;28.30;66.20
3134;DHT22;1577;49.912;10.924;2023-06-10T11:03:00;28.60;65.80
3134;DHT22;1577;49.912;10.924;2023-06-10T11:05:39;28.80;66.10
3134;DHT22;1577;49.912;10.924;2023-06-10T11:08:07;28.70;65.20
3134;DHT22;1577;49.912;10.924;2023-06-10T11:10:35;28.50;65.60
3134;DHT22;1577;49.912;10.924;2023-06-10T11:13:06;28.30;66.30
3134;DHT22;1577;49.912;10.924;2023-06-10T11:15:33;28.30;67.10
3134;DHT22;1577;49.912;10.924;2023-06-10T11:20:54;28.70;66.10
3134;DHT22;1577;49.912;10.924;2023-06-10T11:31:22;29.00;63.90
3134;DHT22;1577;49.912;10.924;2023-06-10T11:33:55;29.00;63.90
3134;DHT22;1577;49.912;10.924;2023-06-10T11:36:22;29.10;63.70
3134;DHT22;1577;49.912;10.924;2023-06-10T11:38:48;29.10;63.00
3134;DHT22;1577;49.912;10.924;2023-06-10T11:41:15;29.00;63.40
3134;DHT22;1577;49.912;10.924;2023-06-10T11:43:43;28.90;64.00
3134;DHT22;1577;49.912;10.924;2023-06-10T11:46:13;28.50;64.70
3134;DHT22;1577;49.912;10.924;2023-06-10T11:48:39;28.20;65.50
3134;DHT22;1577;49.912;10.924;2023-06-10T11:51:06;28.00;66.30
3134;DHT22;1577;49.912;10.924;2023-06-10T11:53:32;27.80;66.10
3134;DHT22;1577;49.912;10.924;2023-06-10T11:55:58;27.60;66.80
3134;DHT22;1577;49.912;10.924;2023-06-10T11:58:23;27.50;67.10
3134;DHT22;1577;49.912;10.924;2023-06-10T12:00:54;27.50;67.50
3134;DHT22;1577;49.912;10.924;2023-06-10T12:03:23;27.60;67.80
3134;DHT22;1577;49.912;10.924;2023-06-10T12:06:05;27.90;67.50
3134;DHT22;1577;49.912;10.924;2023-06-10T12:08:32;28.10;65.40
3134;DHT22;1577;49.912;10.924;2023-06-10T12:10:58;28.30;65.30
3134;DHT22;1577;49.912;10.924;2023-06-10T12:13:27;28.60;65.10
3134;DHT22;1577;49.912;10.924;2023-06-10T12:15:53;28.80;65.10
3134;DHT22;1577;49.912;10.924;2023-06-10T12:18:21;28.80;65.10
3134;DHT22;1577;49.912;10.924;2023-06-10T12:20:47;29.00;64.90
3134;DHT22;1577;49.912;10.924;2023-06-10T12:23:15;29.10;64.20
3134;DHT22;1577;49.912;10.924;2023-06-10T12:25:52;29.10;63.70
3134;DHT22;1577;49.912;10.924;2023-06-10T12:28:21;29.10;63.00
3134;DHT22;1577;49.912;10.924;2023-06-10T12:30:47;29.10;62.70
3134;DHT22;1577;49.912;10.924;2023-06-10T12:33:20;28.90;64.60
3134;DHT22;1577;49.912;10.924;2023-06-10T12:35:48;28.60;65.60
3134;DHT22;1577;49.912;10.924;2023-06-10T12:38:15;28.40;66.20
3134;DHT22;1577;49.912;10.924;2023-06-10T12:40:47;28.10;66.90
3134;DHT22;1577;49.912;10.924;2023-06-10T12:43:13;28.00;67.40
3134;DHT22;1577;49.912;10.924;2023-06-10T12:45:39;28.00;67.90
3134;DHT22;1577;49.912;10.924;2023-06-10T12:48:06;28.10;67.20
3134;DHT22;1577;49.912;10.924;2023-06-10T12:50:32;28.30;68.20
3134;DHT22;1577;49.912;10.924;2023-06-10T12:52:59;28.60;65.20
3134;DHT22;1577;49.912;10.924;2023-06-10T12:55:26;28.70;64.70
3134;DHT22;1577;49.912;10.924;2023-06-10T12:57:52;28.90;64.10
3134;DHT22;1577;49.912;10.924;2023-06-10T13:00:18;29.00;63.90
3134;DHT22;1577;49.912;10.924;2023-06-10T13:02:44;29.20;84.70
3134;DHT22;1577;49.912;10.924;2023-06-10T13:05:09;28.80;77.20
3134;DHT22;1577;49.912;10.924;2023-06-10T13:07:35;28.30;75.10
3134;DHT22;1577;49.912;10.924;2023-06-10T13:10:04;27.90;74.70
3134;DHT22;1577;49.912;10.924;2023-06-10T13:12:29;27.80;71.90
3134;DHT22;1577;49.912;10.924;2023-06-10T13:14:56;27.70;72.70
3134;DHT22;1577;49.912;10.924;2023-06-10T13:17:21;27.60;71.70
3134;DHT22;1577;49.912;10.924;2023-06-10T13:19:47;27.50;71.50
3134;DHT22;1577;49.912;10.924;2023-06-10T13:22:14;27.50;70.60
3134;DHT22;1577;49.912;10.924;2023-06-10T13:24:40;27.60;71.80
3134;DHT22;1577;49.912;10.924;2023-06-10T13:27:06;27.70;70.50
3134;DHT22;1577;49.912;10.924;2023-06-10T13:29:32;27.70;71.50
3134;DHT22;1577;49.912;10.924;2023-06-10T13:31:58;27.60;71.90
3134;DHT22;1577;49.912;10.924;2023-06-10T13:34:23;27.40;70.90
3134;DHT22;1577;49.912;10.924;2023-06-10T13:36:49;27.30;72.00
3134;DHT22;1577;49.912;10.924;2023-06-10T13:39:14;27.30;72.10
3134;DHT22;1577;49.912;10.924;2023-06-10T13:41:43;27.30;70.50
3134;DHT22;1577;49.912;10.924;2023-06-10T13:44:09;27.40;69.60
3134;DHT22;1577;49.912;10.924;2023-06-10T13:46:35;27.50;69.00
3134;DHT22;1577;49.912;10.924;2023-06-10T13:49:00;27.70;71.70
3134;DHT22;1577;49.912;10.924;2023-06-10T13:51:26;27.70;73.70
3134;DHT22;1577;49.912;10.924;2023-06-10T13:53:52;27.60;73.20
3134;DHT22;1577;49.912;10.924;2023-06-10T13:56:18;27.60;73.60
3134;DHT22;1577;49.912;10.924;2023-06-10T13:58:43;27.50;75.40
3134;DHT22;1577;49.912;10.924;2023-06-10T14:01:09;27.30;76.10
3134;DHT22;1577;49.912;10.924;2023-06-10T14:03:35;27.20;77.60
3134;DHT22;1577;49.912;10.924;2023-06-10T14:06:01;27.00;79.10
3134;DHT22;1577;49.912;10.924;2023-06-10T14:08:27;26.90;80.60
3134;DHT22;1577;49.912;10.924;2023-06-10T14:10:53;26.70;82.10
3134;DHT22;1577;49.912;10.924;2023-06-10T14:13:19;26.50;83.10
3134;DHT22;1577;49.912;10.924;2023-06-10T14:15:44;26.40;84.00
3134;DHT22;1577;49.912;10.924;2023-06-10T14:18:11;26.30;84.60
3134;DHT22;1577;49.912;10.924;2023-06-10T14:20:36;26.10;84.90
3134;DHT22;1577;49.912;10.924;2023-06-10T14:23:05;25.90;84.60
3134;DHT22;1577;49.912;10.924;2023-06-10T14:25:30;25.80;85.70
3134;DHT22;1577;49.912;10.924;2023-06-10T14:27:59;25.80;85.10
3134;DHT22;1577;49.912;10.924;2023-06-10T14:30:25;25.80;84.80
3134;DHT22;1577;49.912;10.924;2023-06-10T14:32:50;25.80;84.60
3134;DHT22;1577;49.912;10.924;2023-06-10T14:35:16;25.90;84.20
3134;DHT22;1577;49.912;10.924;2023-06-10T14:37:44;26.00;84.20
3134;DHT22;1577;49.912;10.924;2023-06-10T14:40:10;26.10;83.00
3134;DHT22;1577;49.912;10.924;2023-06-10T14:42:36;26.10;83.10
3134;DHT22;1577;49.912;10.924;2023-06-10T14:45:02;26.20;82.60
3134;DHT22;1577;49.912;10.924;2023-06-10T14:47:28;26.20;81.60
3134;DHT22;1577;49.912;10.924;2023-06-10T14:49:53;26.30;81.10
3134;DHT22;1577;49.912;10.924;2023-06-10T14:52:19;26.40;80.00
3134;DHT22;1577;49.912;10.924;2023-06-10T14:54:44;26.50;80.20
3134;DHT22;1577;49.912;10.924;2023-06-10T14:57:10;26.50;80.00
3134;DHT22;1577;49.912;10.924;2023-06-10T14:59:35;26.50;79.60
3134;DHT22;1577;49.912;10.924;2023-06-10T15:02:04;26.60;78.40
3134;DHT22;1577;49.912;10.924;2023-06-10T15:04:30;26.50;77.80
3134;DHT22;1577;49.912;10.924;2023-06-10T15:06:55;26.50;78.80
3134;DHT22;1577;49.912;10.924;2023-06-10T15:09:21;26.50;79.00
3134;DHT22;1577;49.912;10.924;2023-06-10T15:11:47;26.50;79.40
3134;DHT22;1577;49.912;10.924;2023-06-10T15:14:12;26.50;79.30
3134;DHT22;1577;49.912;10.924;2023-06-10T15:16:38;26.40;79.30
3134;DHT22;1577;49.912;10.924;2023-06-10T15:19:04;26.30;79.90
3134;DHT22;1577;49.912;10.924;2023-06-10T15:21:32;26.30;79.60
3134;DHT22;1577;49.912;10.924;2023-06-10T15:23:57;26.20;79.30
3134;DHT22;1577;49.912;10.924;2023-06-10T15:26:23;26.20;79.50
3134;DHT22;1577;49.912;10.924;2023-06-10T15:28:48;26.30;80.20
3134;DHT22;1577;49.912;10.924;2023-06-10T15:31:14;26.40;79.50
3134;DHT22;1577;49.912;10.924;2023-06-10T15:33:39;26.50;79.40
3134;DHT22;1577;49.912;10.924;2023-06-10T15:36:05;26.60;78.50
3134;DHT22;1577;49.912;10.924;2023-06-10T15:38:31;26.70;78.40
3134;DHT22;1577;49.912;10.924;2023-06-10T15:40:56;26.80;77.20
3134;DHT22;1577;49.912;10.924;2023-06-10T15:43:22;26.80;77.20
3134;DHT22;1577;49.912;10.924;2023-06-10T15:45:48;26.80;74.60
3134;DHT22;1577;49.912;10.924;2023-06-10T15:48:16;26.80;76.00
3134;DHT22;1577;49.912;10.924;2023-06-10T15:50:42;26.80;75.90
3134;DHT22;1577;49.912;10.924;2023-06-10T15:53:08;26.70;77.30
3134;DHT22;1577;49.912;10.924;2023-06-10T15:55:33;26.70;77.80
3134;DHT22;1577;49.912;10.924;2023-06-10T15:57:59;26.60;77.90
3134;DHT22;1577;49.912;10.924;2023-06-10T16:00:25;26.60;78.90
3134;DHT22;1577;49.912;10.924;2023-06-10T16:02:52;26.50;77.80
3134;DHT22;1577;49.912;10.924;2023-06-10T16:05:17;26.40;77.00